This is the latest recevied weather packets stored in our database for station/object CE1RLP-31. If no packets are shown the sender has not sent any weather packets the latest 10 day(s).
| Time | Temp. | Humidity | Pressure | Rain* | Wind** | Luminosity | Snow |
|---|---|---|---|---|---|---|---|
| 1778153870 | 5.56° C | 25% | 1099.1 hPa | - | - | - | - |
| 1778152970 | 5.56° C | 28% | 1099.1 hPa | - | - | - | - |
| 1778152070 | 5.56° C | 26% | 1099 hPa | - | - | - | - |
| 1778151169 | 5.56° C | 26% | 1098.8 hPa | - | - | - | - |
| 1778150269 | 5.56° C | 26% | 1098.7 hPa | - | - | - | - |
| 1778149369 | 6.11° C | 25% | 1098.7 hPa | - | - | - | - |
| 1778148469 | 6.11° C | 24% | 1098.7 hPa | - | - | - | - |
| 1778147571 | 5.56° C | 23% | 1098.6 hPa | - | - | - | - |
| 1778146671 | 6.11° C | 32% | 1098.7 hPa | - | - | - | - |
| 1778145770 | 6.11° C | 37% | 1098.7 hPa | - | - | - | - |
| 1778144870 | 6.11° C | 34% | 1098.5 hPa | - | - | - | - |
| 1778143070 | 6.67° C | 35% | 1098.7 hPa | - | - | - | - |
| 1778142170 | 6.67° C | 33% | 1098.7 hPa | - | - | - | - |
| 1778141270 | 6.67° C | 32% | 1098.7 hPa | - | - | - | - |
| 1778140370 | -6.67° C | 32% | 1084.1 hPa | - | - | - | - |
| 1778139470 | 6.67° C | 32% | 1098.7 hPa | - | - | - | - |
| 1778138570 | 6.67° C | 33% | 1098.8 hPa | - | - | - | - |
| 1778137670 | 7.22° C | 30% | 1099 hPa | - | - | - | - |
| 1778136770 | 7.22° C | 32% | 1099.1 hPa | - | - | - | - |
| 1778135869 | 7.22° C | 31% | 1099.3 hPa | - | - | - | - |
| 1778134969 | 7.78° C | 28% | 1099.2 hPa | - | - | - | - |
| 1778134069 | 7.78° C | 27% | 1099.4 hPa | - | - | - | - |
| 1778133169 | 8.33° C | 24% | 1099.4 hPa | - | - | - | - |
| 1778132269 | 8.33° C | 22% | 1099.5 hPa | - | - | - | - |
| 1778131369 | -11.11° C | 24% | 1078.5 hPa | - | - | - | - |
* Rain since midnight (hover to see other rain measurements)
** Current wind speed in m/s (hover to see current wind gust speed)